createdAt,value
2023-03-17T00:01:34.134Z,100862.66
2023-03-17T00:04:01.541Z,100862.81
2023-03-17T00:06:33.801Z,100863.78
2023-03-17T00:09:00.375Z,100865.78
2023-03-17T00:11:27.619Z,100864.97
2023-03-17T00:13:54.281Z,100874.84
2023-03-17T00:16:24.618Z,100861.44
2023-03-17T00:18:53.412Z,100860.72
2023-03-17T00:21:29.200Z,100847.63
2023-03-17T00:23:56.563Z,100840.41
2023-03-17T00:26:24.151Z,100834.22
2023-03-17T00:28:51.773Z,100829.88
2023-03-17T00:31:22.160Z,100845.94
2023-03-17T00:33:50.196Z,100844.25
2023-03-17T00:36:35.425Z,100839.91
2023-03-17T00:39:01.978Z,100835.38
2023-03-17T00:41:29.581Z,100840.88
2023-03-17T00:43:57.218Z,100846.22
2023-03-17T00:46:35.705Z,100850.75
2023-03-17T00:49:21.131Z,100834.00
2023-03-17T00:51:48.765Z,100846.56
2023-03-17T00:54:16.854Z,100839.50
2023-03-17T00:56:44.472Z,100830.78
2023-03-17T00:59:30.499Z,100816.53
2023-03-17T01:01:57.286Z,100801.44
2023-03-17T01:04:23.927Z,100809.47
2023-03-17T01:06:52.123Z,100819.34
2023-03-17T01:09:20.310Z,100823.88
2023-03-17T01:11:48.549Z,100822.19
2023-03-17T01:14:15.351Z,100829.38
2023-03-17T01:16:42.078Z,100831.22
2023-03-17T01:19:12.313Z,100829.38
2023-03-17T01:21:39.191Z,100824.03
2023-03-17T01:24:06.359Z,100824.03
2023-03-17T01:26:32.872Z,100816.13
2023-03-17T01:28:59.868Z,100815.44
2023-03-17T01:31:26.526Z,100814.44
2023-03-17T01:33:53.246Z,100816.44
2023-03-17T01:36:20.597Z,100819.13
2023-03-17T01:38:50.665Z,100809.38
2023-03-17T01:41:19.104Z,100795.31
2023-03-17T01:43:45.632Z,100796.16
2023-03-17T01:46:34.019Z,100799.97
2023-03-17T01:49:24.998Z,100797.44
2023-03-17T01:52:11.083Z,100800.13
2023-03-17T01:54:59.592Z,100785.88
2023-03-17T01:57:37.083Z,100780.69
2023-03-17T02:00:13.267Z,100779.16
2023-03-17T02:02:45.696Z,100784.34
2023-03-17T02:05:15.643Z,100779.97
2023-03-17T02:07:42.856Z,100768.44
2023-03-17T02:10:10.240Z,100779.28
2023-03-17T02:12:37.090Z,100778.44
2023-03-17T02:15:05.334Z,100772.25
2023-03-17T02:17:32.053Z,100766.03
2023-03-17T02:20:32.753Z,100787.63
2023-03-17T02:23:00.560Z,100774.25
2023-03-17T02:25:30.732Z,100768.88
2023-03-17T02:28:01.666Z,100769.84
2023-03-17T02:30:29.144Z,100771.56
2023-03-17T02:32:56.053Z,100760.13
2023-03-17T02:35:23.389Z,100766.22
2023-03-17T02:37:50.096Z,100762.81
2023-03-17T02:40:17.416Z,100763.53
2023-03-17T02:42:44.323Z,100758.31
2023-03-17T02:45:13.105Z,100759.31
2023-03-17T02:47:40.085Z,100758.47
2023-03-17T02:50:10.013Z,100765.50
2023-03-17T02:52:36.542Z,100768.34
2023-03-17T02:55:03.787Z,100766.66
2023-03-17T02:57:30.345Z,100767.50
2023-03-17T02:59:56.856Z,100763.97
2023-03-17T03:02:23.357Z,100772.84
2023-03-17T03:04:50.408Z,100775.53
2023-03-17T03:07:17.062Z,100776.50
2023-03-17T03:09:43.615Z,100773.81
2023-03-17T03:12:10.642Z,100776.50
2023-03-17T03:14:37.566Z,100764.13
2023-03-17T03:17:04.433Z,100761.59
2023-03-17T03:19:31.118Z,100755.41
2023-03-17T03:21:57.723Z,100760.75
2023-03-17T03:24:24.273Z,100759.91
2023-03-17T03:26:50.904Z,100759.91
2023-03-17T03:29:17.720Z,100768.09
2023-03-17T03:31:44.342Z,100764.41
2023-03-17T03:34:10.968Z,100765.41
2023-03-17T03:36:37.480Z,100766.41
2023-03-17T03:39:04.034Z,100771.75
2023-03-17T03:41:30.719Z,100784.31
2023-03-17T03:43:57.280Z,100775.44
2023-03-17T03:46:23.842Z,100782.47
2023-03-17T03:48:50.384Z,100779.09
2023-03-17T03:51:16.897Z,100779.97
2023-03-17T03:53:43.433Z,100772.91
2023-03-17T03:56:10.779Z,100777.41
2023-03-17T03:58:38.053Z,100782.75
2023-03-17T04:01:09.535Z,100785.59
2023-03-17T04:03:37.421Z,100776.72
2023-03-17T04:06:04.089Z,100781.25
2023-03-17T04:08:31.796Z,100782.09
2023-03-17T04:10:58.573Z,100795.47
2023-03-17T04:13:25.116Z,100797.31
2023-03-17T04:15:51.751Z,100792.09
2023-03-17T04:18:18.574Z,100786.72
2023-03-17T04:20:45.314Z,100793.09
2023-03-17T04:23:11.896Z,100786.06
2023-03-17T04:25:38.892Z,100788.72
2023-03-17T04:28:05.601Z,100783.38
2023-03-17T04:30:32.700Z,100791.25
2023-03-17T04:32:59.454Z,100781.53
2023-03-17T04:35:26.772Z,100780.69
2023-03-17T04:37:53.352Z,100782.38
2023-03-17T04:40:20.237Z,100773.50
2023-03-17T04:42:46.905Z,100778.03
2023-03-17T04:45:17.590Z,100782.38
2023-03-17T04:47:46.102Z,100792.25
2023-03-17T04:50:13.932Z,100784.34
2023-03-17T04:52:41.087Z,100784.34
2023-03-17T04:55:08.417Z,100807.59
2023-03-17T04:57:36.034Z,100806.75
2023-03-17T05:00:03.022Z,100800.41
2023-03-17T05:02:29.624Z,100801.41
2023-03-17T05:04:56.191Z,100797.91
2023-03-17T05:07:22.874Z,100805.09
2023-03-17T05:09:49.445Z,100805.94
2023-03-17T05:12:16.083Z,100797.06
2023-03-17T05:14:42.784Z,100786.34
2023-03-17T05:17:09.475Z,100772.13
2023-03-17T05:19:36.022Z,100774.78
2023-03-17T05:22:02.586Z,100773.97
2023-03-17T05:24:29.176Z,100771.28
2023-03-17T05:26:55.760Z,100778.31
2023-03-17T05:29:22.395Z,100763.25
2023-03-17T05:31:48.926Z,100733.78
2023-03-17T05:34:15.985Z,100741.81
2023-03-17T05:36:43.574Z,100745.34
2023-03-17T05:39:10.194Z,100743.66
2023-03-17T05:41:36.769Z,100734.75
2023-03-17T05:44:03.278Z,100743.66
2023-03-17T05:46:29.837Z,100752.66
2023-03-17T05:48:56.430Z,100751.00
2023-03-17T05:51:23.027Z,100767.88
2023-03-17T05:53:49.708Z,100756.34
2023-03-17T05:56:16.571Z,100764.38
2023-03-17T05:58:43.091Z,100763.66
2023-03-17T06:01:09.677Z,100770.72
2023-03-17T06:03:38.551Z,100764.53
2023-03-17T06:06:06.022Z,100767.22
2023-03-17T06:08:32.553Z,100759.19
2023-03-17T06:10:59.059Z,100756.63
2023-03-17T06:13:25.720Z,100762.00
2023-03-17T06:15:52.375Z,100761.16
2023-03-17T06:18:19.875Z,100770.03
2023-03-17T06:20:46.910Z,100779.88
2023-03-17T06:23:13.531Z,100777.22
2023-03-17T06:25:40.342Z,100774.38
2023-03-17T06:28:07.092Z,100769.03
2023-03-17T06:30:34.882Z,100769.88
2023-03-17T06:33:02.359Z,100768.06
2023-03-17T06:35:30.571Z,100774.25
2023-03-17T06:37:58.026Z,100764.53
2023-03-17T06:40:24.679Z,100771.56
2023-03-17T06:42:52.102Z,100769.72
2023-03-17T06:45:18.659Z,100767.88
2023-03-17T06:47:45.212Z,100774.09
2023-03-17T06:50:12.696Z,100775.94
2023-03-17T06:52:39.965Z,100777.59
2023-03-17T06:55:07.211Z,100776.63
2023-03-17T06:57:34.034Z,100783.66
2023-03-17T07:00:00.807Z,100782.00
2023-03-17T07:02:27.449Z,100782.66
2023-03-17T07:04:54.072Z,100768.28
2023-03-17T07:07:21.182Z,100772.66
2023-03-17T07:09:47.930Z,100779.69
2023-03-17T07:12:15.044Z,100778.56
2023-03-17T07:14:41.779Z,100782.09
2023-03-17T07:17:14.851Z,100777.56
2023-03-17T07:19:42.351Z,100772.06
2023-03-17T07:22:11.801Z,100777.28
2023-03-17T07:24:38.574Z,100787.00
2023-03-17T07:27:05.124Z,100805.56
2023-03-17T07:29:33.736Z,100801.91
2023-03-17T07:32:01.249Z,100800.94
2023-03-17T07:34:28.218Z,100794.56
2023-03-17T07:36:54.993Z,100789.22
2023-03-17T07:39:24.378Z,100790.91
2023-03-17T07:41:55.078Z,100785.53
2023-03-17T07:44:22.693Z,100781.84
2023-03-17T07:46:50.192Z,100768.34
2023-03-17T07:49:18.169Z,100767.34
2023-03-17T07:51:46.638Z,100780.72
2023-03-17T07:54:15.755Z,100775.22
2023-03-17T07:56:42.507Z,100772.53
2023-03-17T07:59:10.913Z,100771.41
2023-03-17T08:01:38.288Z,100765.03
2023-03-17T08:04:05.551Z,100775.47
2023-03-17T08:06:35.222Z,100783.22
2023-03-17T08:09:01.768Z,100780.22
2023-03-17T08:11:29.457Z,100780.06
2023-03-17T08:13:56.288Z,100778.09
2023-03-17T08:16:23.079Z,100780.31
2023-03-17T08:18:49.866Z,100793.25
2023-03-17T08:21:16.766Z,100795.47
2023-03-17T08:23:43.580Z,100797.69
2023-03-17T08:26:10.257Z,100794.56
2023-03-17T08:28:37.389Z,100784.38
2023-03-17T08:31:12.840Z,100783.91
2023-03-17T08:33:43.367Z,100797.91
2023-03-17T08:36:11.305Z,100800.94
2023-03-17T08:38:39.253Z,100794.28
2023-03-17T08:41:08.584Z,100793.84
2023-03-17T08:43:36.693Z,100792.69
2023-03-17T08:46:08.212Z,100794.91
2023-03-17T08:48:36.486Z,100784.72
2023-03-17T08:51:05.159Z,100780.72
2023-03-17T08:53:32.936Z,100775.03
2023-03-17T08:55:59.542Z,100776.41
2023-03-17T08:58:26.177Z,100755.50
2023-03-17T09:00:53.506Z,100765.91
2023-03-17T09:03:20.881Z,100763.06
2023-03-17T09:05:48.611Z,100760.09
2023-03-17T09:08:15.219Z,100762.47
2023-03-17T09:10:44.192Z,100775.53
2023-03-17T09:13:11.658Z,100777.91
2023-03-17T09:15:38.872Z,100770.56
2023-03-17T09:18:06.284Z,100784.66
2023-03-17T09:20:33.929Z,100779.97
2023-03-17T09:23:01.384Z,100781.34
2023-03-17T09:25:27.951Z,100785.72
2023-03-17T09:27:55.610Z,100794.44
2023-03-17T09:30:22.170Z,100803.00
2023-03-17T09:32:49.178Z,100798.34
2023-03-17T09:35:17.234Z,100802.53
2023-03-17T09:37:43.886Z,100809.25
2023-03-17T09:40:17.148Z,100808.13
2023-03-17T09:42:52.295Z,100812.03
2023-03-17T09:45:34.938Z,100800.84
2023-03-17T09:48:08.343Z,100798.34
2023-03-17T09:50:57.737Z,100810.44
2023-03-17T09:53:35.904Z,100814.50
2023-03-17T09:56:07.852Z,100810.66
2023-03-17T09:58:36.805Z,100821.22
2023-03-17T10:01:05.394Z,100818.41
2023-03-17T10:03:32.807Z,100826.28
2023-03-17T10:06:33.484Z,100828.81
2023-03-17T10:09:06.002Z,100833.88
2023-03-17T10:11:40.882Z,100852.34
2023-03-17T10:14:17.081Z,100853.72
2023-03-17T10:16:54.694Z,100847.88
2023-03-17T10:19:32.679Z,100846.53
2023-03-17T10:22:05.464Z,100852.44
2023-03-17T10:24:34.094Z,100859.16
2023-03-17T10:27:06.344Z,100858.69
2023-03-17T10:29:33.243Z,100856.38
2023-03-17T10:31:59.778Z,100853.19
2023-03-17T10:34:32.600Z,100865.31
2023-03-17T10:37:06.794Z,100868.84
2023-03-17T10:39:44.713Z,100865.97
2023-03-17T10:42:23.263Z,100872.19
2023-03-17T10:45:01.824Z,100866.81
2023-03-17T10:47:38.126Z,100865.13
2023-03-17T10:50:21.002Z,100860.59
2023-03-17T10:52:52.402Z,100857.78
2023-03-17T10:55:23.158Z,100852.41
2023-03-17T10:58:12.297Z,100854.22
2023-03-17T11:00:39.211Z,100852.41
2023-03-17T11:03:18.985Z,100846.31
2023-03-17T11:06:08.466Z,100834.72
2023-03-17T11:08:57.209Z,100832.88
2023-03-17T11:11:31.096Z,100825.84
2023-03-17T11:14:11.648Z,100818.78
2023-03-17T11:16:46.669Z,100820.59
2023-03-17T11:19:17.038Z,100818.94
2023-03-17T11:22:00.775Z,100811.88
2023-03-17T11:24:33.627Z,100809.19
2023-03-17T11:27:11.033Z,100810.88
2023-03-17T11:29:52.032Z,100808.03
2023-03-17T11:32:21.183Z,100801.16
2023-03-17T11:34:52.182Z,100796.94
2023-03-17T11:37:41.542Z,100801.69
2023-03-17T11:40:17.261Z,100792.84
2023-03-17T11:43:05.382Z,100791.16
2023-03-17T11:45:49.948Z,100793.88
2023-03-17T11:48:53.825Z,100786.97
2023-03-17T11:51:33.028Z,100808.66
2023-03-17T11:54:27.002Z,100811.50
2023-03-17T11:57:03.292Z,100804.78
2023-03-17T11:59:41.954Z,100794.88
2023-03-17T12:02:39.424Z,100788.50
2023-03-17T12:05:10.692Z,100776.53
2023-03-17T12:08:05.878Z,100764.28
2023-03-17T12:10:51.638Z,100765.13
2023-03-17T12:13:40.286Z,100769.81
2023-03-17T12:16:17.399Z,100764.44
2023-03-17T12:19:19.276Z,100763.78
2023-03-17T12:21:54.260Z,100754.69
2023-03-17T12:24:35.066Z,100753.00
2023-03-17T12:27:28.027Z,100751.34
2023-03-17T12:30:02.915Z,100757.56
2023-03-17T12:32:39.416Z,100757.56
2023-03-17T12:35:22.372Z,100763.09
2023-03-17T12:37:49.394Z,100779.09
2023-03-17T12:40:25.151Z,100772.00
2023-03-17T12:43:03.671Z,100785.31
2023-03-17T12:45:56.943Z,100779.91
2023-03-17T12:48:26.378Z,100770.00
2023-03-17T12:51:37.281Z,100778.25
2023-03-17T12:54:05.699Z,100770.19
2023-03-17T12:56:34.578Z,100764.09
2023-03-17T12:59:08.703Z,100775.88
2023-03-17T13:01:43.145Z,100774.22
2023-03-17T13:04:12.716Z,100766.13
2023-03-17T13:07:00.771Z,100761.94
2023-03-17T13:09:39.470Z,100760.91
2023-03-17T13:12:12.557Z,100756.53
2023-03-17T13:14:44.701Z,100757.19
2023-03-17T13:17:31.699Z,100759.56
2023-03-17T13:20:07.392Z,100756.34
2023-03-17T13:22:40.353Z,100763.78
2023-03-17T13:25:15.764Z,100771.50
2023-03-17T13:27:44.448Z,100775.69
2023-03-17T13:30:24.216Z,100776.53
2023-03-17T13:33:19.601Z,100779.06
2023-03-17T13:35:46.203Z,100772.69
2023-03-17T13:38:39.838Z,100778.25
2023-03-17T13:41:37.755Z,100766.59
2023-03-17T13:44:28.989Z,100764.78
2023-03-17T13:46:55.643Z,100756.72
2023-03-17T13:49:29.563Z,100756.84
2023-03-17T13:52:13.009Z,100752.50
2023-03-17T13:54:49.644Z,100750.00
2023-03-17T13:57:34.721Z,100742.91
2023-03-17T14:00:07.158Z,100745.59
2023-03-17T14:02:38.547Z,100749.31
2023-03-17T14:05:27.518Z,100753.00
2023-03-17T14:07:59.527Z,100753.00
2023-03-17T14:10:29.972Z,100750.31
2023-03-17T14:13:23.332Z,100740.56
2023-03-17T14:16:06.832Z,100740.56
2023-03-17T14:18:40.305Z,100734.19
2023-03-17T14:21:19.294Z,100725.28
2023-03-17T14:23:57.518Z,100732.31
2023-03-17T14:26:29.769Z,100735.84
2023-03-17T14:29:00.554Z,100734.19
2023-03-17T14:31:28.990Z,100729.63
2023-03-17T14:33:58.658Z,100728.78
2023-03-17T14:36:27.574Z,100723.41
2023-03-17T14:38:56.806Z,100710.78
2023-03-17T14:41:28.337Z,100706.44
2023-03-17T14:43:59.295Z,100707.28
2023-03-17T14:46:37.801Z,100709.13
2023-03-17T14:49:16.797Z,100712.66
2023-03-17T14:51:43.985Z,100698.19
2023-03-17T14:54:18.392Z,100696.50
2023-03-17T14:56:51.231Z,100694.84
2023-03-17T14:59:17.789Z,100692.97
2023-03-17T15:01:48.496Z,100696.50
2023-03-17T15:04:32.671Z,100702.03
2023-03-17T15:07:04.882Z,100695.81
2023-03-17T15:09:41.187Z,100702.91
2023-03-17T15:12:18.143Z,100693.13
2023-03-17T15:14:46.422Z,100691.28
2023-03-17T15:17:22.637Z,100681.53
2023-03-17T15:19:52.657Z,100682.38
2023-03-17T15:22:32.378Z,100683.38
2023-03-17T15:25:03.481Z,100674.31
2023-03-17T15:27:31.718Z,100680.69
2023-03-17T15:29:58.574Z,100682.38
2023-03-17T15:32:26.989Z,100675.31
2023-03-17T15:34:56.537Z,100675.31
2023-03-17T15:37:29.215Z,100673.66
2023-03-17T15:39:56.773Z,100667.44
2023-03-17T15:42:30.501Z,100664.75
2023-03-17T15:44:57.240Z,100660.34
2023-03-17T15:47:27.117Z,100669.09
2023-03-17T15:49:58.715Z,100661.03
2023-03-17T15:52:27.277Z,100659.34
2023-03-17T15:54:56.617Z,100664.88
2023-03-17T15:57:24.008Z,100667.56
2023-03-17T15:59:50.687Z,100676.66
2023-03-17T16:02:33.433Z,100678.53
2023-03-17T16:05:05.023Z,100675.50
2023-03-17T16:07:31.639Z,100678.84
2023-03-17T16:09:58.157Z,100672.28
2023-03-17T16:12:24.763Z,100671.78
2023-03-17T16:14:51.547Z,100672.28
2023-03-17T16:17:28.818Z,100679.00
2023-03-17T16:19:57.135Z,100680.13
2023-03-17T16:22:33.013Z,100679.81
2023-03-17T16:24:59.526Z,100680.13
2023-03-17T16:27:26.429Z,100679.59
2023-03-17T16:29:52.995Z,100685.66
2023-03-17T16:32:19.560Z,100678.22
2023-03-17T16:34:46.056Z,100685.31
2023-03-17T16:37:15.798Z,100687.19
2023-03-17T16:39:42.946Z,100683.63
2023-03-17T16:42:21.697Z,100684.81
2023-03-17T16:44:48.317Z,100694.75
2023-03-17T16:47:14.841Z,100702.16
2023-03-17T16:49:41.552Z,100698.81
2023-03-17T16:52:08.970Z,100690.06
2023-03-17T16:54:35.808Z,100699.16
2023-03-17T16:57:02.406Z,100706.53
2023-03-17T16:59:31.419Z,100696.97
2023-03-17T17:01:58.327Z,100698.97
2023-03-17T17:04:25.141Z,100702.88
2023-03-17T17:06:51.690Z,100709.25
2023-03-17T17:09:19.052Z,100698.66
2023-03-17T17:11:45.671Z,100698.84
2023-03-17T17:14:12.239Z,100697.16
2023-03-17T17:16:40.271Z,100694.44
2023-03-17T17:19:15.694Z,100699.19
2023-03-17T17:21:42.816Z,100697.50
2023-03-17T17:24:11.654Z,100696.63
2023-03-17T17:26:38.438Z,100688.75
2023-03-17T17:29:04.977Z,100696.81
2023-03-17T17:31:31.670Z,100693.47
2023-03-17T17:33:58.229Z,100691.63
2023-03-17T17:36:26.168Z,100699.00
2023-03-17T17:38:52.795Z,100696.31
2023-03-17T17:41:21.631Z,100691.97
2023-03-17T17:43:49.922Z,100690.28
2023-03-17T17:46:22.148Z,100689.59
2023-03-17T17:48:48.949Z,100688.78
2023-03-17T17:51:15.786Z,100688.13
2023-03-17T17:53:42.394Z,100690.81
2023-03-17T17:56:14.771Z,100694.66
2023-03-17T17:58:42.795Z,100700.03
2023-03-17T18:01:12.870Z,100702.06
2023-03-17T18:03:42.669Z,100700.38
2023-03-17T18:06:09.327Z,100696.00
2023-03-17T18:08:35.960Z,100700.56
2023-03-17T18:11:02.598Z,100694.50
2023-03-17T18:13:29.172Z,100699.88
2023-03-17T18:15:55.680Z,100690.97
2023-03-17T18:18:22.213Z,100702.75
2023-03-17T18:20:48.748Z,100698.38
2023-03-17T18:23:16.390Z,100703.59
2023-03-17T18:25:42.987Z,100702.91
2023-03-17T18:28:09.507Z,100698.38
2023-03-17T18:30:36.293Z,100702.91
2023-03-17T18:33:16.443Z,100701.22
2023-03-17T18:35:46.264Z,100699.38
2023-03-17T18:38:13.105Z,100701.22
2023-03-17T18:40:41.343Z,100699.38
2023-03-17T18:43:07.826Z,100703.91
2023-03-17T18:45:34.426Z,100703.06
2023-03-17T18:48:00.982Z,100707.63
2023-03-17T18:50:27.526Z,100710.31
2023-03-17T18:52:55.631Z,100718.56
2023-03-17T18:55:22.131Z,100708.63
2023-03-17T18:57:48.624Z,100712.31
2023-03-17T19:00:17.439Z,100719.53
2023-03-17T19:02:44.755Z,100723.25
2023-03-17T19:05:11.654Z,100719.72
2023-03-17T19:07:40.401Z,100717.22
2023-03-17T19:10:07.944Z,100720.88
2023-03-17T19:12:34.480Z,100713.66
2023-03-17T19:15:01.706Z,100713.84
2023-03-17T19:17:28.309Z,100713.00
2023-03-17T19:19:54.907Z,100717.69
2023-03-17T19:22:21.520Z,100714.03
2023-03-17T19:24:50.117Z,100714.16
2023-03-17T19:27:17.370Z,100715.00
2023-03-17T19:29:43.961Z,100706.28
2023-03-17T19:32:10.515Z,100712.69
2023-03-17T19:34:37.098Z,100709.97
2023-03-17T19:37:04.238Z,100710.97
2023-03-17T19:39:31.400Z,100716.34
2023-03-17T19:41:59.151Z,100714.69
2023-03-17T19:44:26.031Z,100713.00
2023-03-17T19:46:52.595Z,100718.38
2023-03-17T19:49:21.028Z,100712.16
2023-03-17T19:51:48.889Z,100710.66
2023-03-17T19:54:15.558Z,100708.78
2023-03-17T19:56:42.542Z,100714.34
2023-03-17T19:59:09.333Z,100700.91
2023-03-17T20:01:37.838Z,100709.81
2023-03-17T20:04:06.825Z,100718.06
2023-03-17T20:06:34.511Z,100709.97
2023-03-17T20:09:03.840Z,100714.69
2023-03-17T20:11:33.779Z,100708.63
2023-03-17T20:14:01.412Z,100717.69
2023-03-17T20:16:30.252Z,100716.81
2023-03-17T20:18:56.798Z,100727.75
2023-03-17T20:21:23.513Z,100719.69
2023-03-17T20:23:50.025Z,100723.53
2023-03-17T20:26:16.570Z,100721.88
2023-03-17T20:28:43.272Z,100728.25
2023-03-17T20:31:09.855Z,100735.50
2023-03-17T20:33:36.407Z,100737.47
2023-03-17T20:36:03.687Z,100734.97
2023-03-17T20:38:33.226Z,100742.22
2023-03-17T20:41:14.183Z,100749.56
2023-03-17T20:43:41.650Z,100759.31
2023-03-17T20:46:13.713Z,100761.34
2023-03-17T20:48:40.840Z,100761.50
2023-03-17T20:51:10.109Z,100765.38
2023-03-17T20:53:36.731Z,100764.69
2023-03-17T20:56:03.396Z,100767.53
2023-03-17T20:58:30.442Z,100771.25
2023-03-17T21:00:58.439Z,100767.03
2023-03-17T21:03:25.390Z,100772.41
2023-03-17T21:05:53.366Z,100777.13
2023-03-17T21:08:19.881Z,100775.41
2023-03-17T21:10:46.591Z,100780.97
2023-03-17T21:13:13.321Z,100786.34
2023-03-17T21:15:41.068Z,100779.28
2023-03-17T21:18:07.621Z,100782.13
2023-03-17T21:20:34.290Z,100785.81
2023-03-17T21:23:03.240Z,100788.69
2023-03-17T21:25:30.193Z,100792.53
2023-03-17T21:27:56.890Z,100795.22
2023-03-17T21:30:23.434Z,100803.44
2023-03-17T21:32:50.013Z,100796.38
2023-03-17T21:35:18.116Z,100803.75
2023-03-17T21:37:44.670Z,100808.13
2023-03-17T21:40:13.263Z,100798.53
2023-03-17T21:42:40.705Z,100802.22
2023-03-17T21:45:07.761Z,100803.25
2023-03-17T21:47:36.318Z,100796.19
2023-03-17T21:50:05.165Z,100807.06
2023-03-17T21:52:31.847Z,100812.63
2023-03-17T21:54:58.535Z,100806.41
2023-03-17T21:57:25.409Z,100815.50
2023-03-17T21:59:51.940Z,100823.69
2023-03-17T22:02:18.485Z,100819.31
2023-03-17T22:04:46.861Z,100825.53
2023-03-17T22:07:13.974Z,100829.06
2023-03-17T22:09:40.519Z,100822.19
2023-03-17T22:12:07.905Z,100823.16
2023-03-17T22:14:35.586Z,100820.66
2023-03-17T22:17:05.236Z,100817.97
2023-03-17T22:19:32.370Z,100822.50
2023-03-17T22:21:59.165Z,100824.34
2023-03-17T22:24:25.936Z,100827.03
2023-03-17T22:26:52.653Z,100820.13
2023-03-17T22:29:19.948Z,100826.34
2023-03-17T22:31:46.861Z,100831.88
2023-03-17T22:34:13.855Z,100840.06
2023-03-17T22:36:40.785Z,100847.28
2023-03-17T22:39:10.426Z,100852.00
2023-03-17T22:41:37.785Z,100837.75
2023-03-17T22:44:04.481Z,100839.72
2023-03-17T22:46:31.046Z,100839.72
2023-03-17T22:48:57.612Z,100842.59
2023-03-17T22:51:26.658Z,100848.78
2023-03-17T22:53:53.718Z,100843.56
2023-03-17T22:56:21.089Z,100837.34
2023-03-17T22:58:47.916Z,100847.25
2023-03-17T23:01:16.791Z,100845.56
2023-03-17T23:03:44.693Z,100840.38
2023-03-17T23:06:13.076Z,100834.13
2023-03-17T23:08:42.754Z,100846.06
2023-03-17T23:11:12.308Z,100846.06
2023-03-17T23:13:40.392Z,100847.06
2023-03-17T23:16:08.550Z,100848.22
2023-03-17T23:18:35.328Z,100851.75
2023-03-17T23:21:02.942Z,100862.47
2023-03-17T23:23:29.482Z,100857.28
2023-03-17T23:25:56.263Z,100864.50
2023-03-17T23:28:23.136Z,100861.81
2023-03-17T23:30:50.293Z,100856.59
2023-03-17T23:33:21.152Z,100839.63
2023-03-17T23:35:51.634Z,100837.13
2023-03-17T23:38:22.136Z,100835.28
2023-03-17T23:40:49.354Z,100839.63
2023-03-17T23:43:16.292Z,100845.84
2023-03-17T23:45:43.100Z,100845.00
2023-03-17T23:48:10.505Z,100843.31
2023-03-17T23:50:39.369Z,100845.16
2023-03-17T23:53:05.892Z,100847.03
2023-03-17T23:55:32.459Z,100853.22
2023-03-17T23:57:59.003Z,100857.59
